createdAt,value
2019-05-03T00:03:51.884Z,38.28
2019-05-03T00:06:23.354Z,37.90
2019-05-03T00:08:55.929Z,36.85
2019-05-03T00:11:25.022Z,38.42
2019-05-03T00:13:56.398Z,35.80
2019-05-03T00:16:32.541Z,36.03
2019-05-03T00:19:03.244Z,36.73
2019-05-03T00:21:32.737Z,36.50
2019-05-03T00:24:02.981Z,39.95
2019-05-03T00:26:31.968Z,37.78
2019-05-03T00:29:02.216Z,40.75
2019-05-03T00:31:31.892Z,37.90
2019-05-03T00:34:06.548Z,37.80
2019-05-03T00:36:55.292Z,38.45
2019-05-03T00:39:39.022Z,38.45
2019-05-03T00:42:08.138Z,36.30
2019-05-03T00:44:37.006Z,36.08
2019-05-03T00:47:05.954Z,39.40
2019-05-03T00:49:34.944Z,36.85
2019-05-03T00:52:04.032Z,37.38
2019-05-03T00:54:32.895Z,35.45
2019-05-03T00:57:02.735Z,35.10
2019-05-03T00:59:32.673Z,35.88
2019-05-03T01:02:02.681Z,37.58
2019-05-03T01:04:33.665Z,37.93
2019-05-03T01:07:02.574Z,35.63
2019-05-03T01:09:31.807Z,36.10
2019-05-03T01:12:01.930Z,37.63
2019-05-03T01:14:31.787Z,37.95
2019-05-03T01:17:02.605Z,36.77
2019-05-03T01:22:01.953Z,34.30
2019-05-03T01:24:32.250Z,38.00
2019-05-03T01:27:02.591Z,38.55
2019-05-03T01:32:02.515Z,36.30
2019-05-03T01:34:37.038Z,38.92
2019-05-03T01:37:06.019Z,37.88
2019-05-03T01:39:34.954Z,34.75
2019-05-03T01:42:03.997Z,37.23
2019-05-03T01:44:32.985Z,38.53
2019-05-03T01:47:04.672Z,40.52
2019-05-03T01:49:42.568Z,37.40
2019-05-03T01:52:33.581Z,38.70
2019-05-03T01:55:03.295Z,37.42
2019-05-03T01:57:32.530Z,37.53
2019-05-03T02:00:02.827Z,34.45
2019-05-03T02:03:01.556Z,36.80
2019-05-03T02:05:45.139Z,33.80
2019-05-03T02:08:14.096Z,33.05
2019-05-03T02:10:44.078Z,38.40
2019-05-03T02:13:13.046Z,38.53
2019-05-03T02:15:42.301Z,37.78
2019-05-03T02:18:14.887Z,34.98
2019-05-03T02:20:42.401Z,38.95
2019-05-03T02:23:11.894Z,39.95
2019-05-03T02:25:41.920Z,40.10
2019-05-03T02:28:12.649Z,35.05
2019-05-03T02:30:44.001Z,37.30
2019-05-03T02:33:13.453Z,37.40
2019-05-03T02:38:13.494Z,42.08
2019-05-03T02:40:43.097Z,34.48
2019-05-03T02:43:21.331Z,37.73
2019-05-03T02:46:10.554Z,36.73
2019-05-03T02:49:07.818Z,39.13
2019-05-03T02:51:36.960Z,39.38
2019-05-03T02:54:06.086Z,37.48
2019-05-03T02:56:35.739Z,38.08
2019-05-03T02:59:06.141Z,38.20
2019-05-03T03:01:35.998Z,37.53
2019-05-03T03:04:05.849Z,36.45
2019-05-03T03:06:36.946Z,34.92
2019-05-03T03:09:07.047Z,36.38
2019-05-03T03:11:39.025Z,40.05
2019-05-03T03:14:12.416Z,36.05
2019-05-03T03:16:48.126Z,35.08
2019-05-03T03:19:19.954Z,36.60
2019-05-03T03:21:51.906Z,34.98
2019-05-03T03:24:25.988Z,36.70
2019-05-03T03:26:58.359Z,37.78
2019-05-03T03:29:28.576Z,36.75
2019-05-03T03:32:30.360Z,37.13
2019-05-03T03:35:20.846Z,36.90
2019-05-03T03:37:50.142Z,34.55
2019-05-03T03:40:20.527Z,37.55
2019-05-03T03:42:52.574Z,33.95
2019-05-03T03:45:22.172Z,37.55
2019-05-03T03:47:59.108Z,38.15
2019-05-03T03:50:35.899Z,36.53
2019-05-03T03:53:10.586Z,37.90
2019-05-03T03:58:09.400Z,41.48
2019-05-03T04:00:38.917Z,39.03
2019-05-03T04:03:08.723Z,39.50
2019-05-03T04:05:37.932Z,40.95
2019-05-03T04:08:07.305Z,41.00
2019-05-03T04:10:36.586Z,41.18
2019-05-03T04:13:08.548Z,40.20
2019-05-03T04:15:56.459Z,39.60
2019-05-03T04:18:40.488Z,41.48
2019-05-03T04:23:39.774Z,41.10
2019-05-03T04:26:10.105Z,42.17
2019-05-03T04:28:39.924Z,44.80
2019-05-03T04:31:09.053Z,43.05
2019-05-03T04:33:37.976Z,43.45
2019-05-03T04:36:07.077Z,45.90
2019-05-03T04:38:37.427Z,45.00
2019-05-03T04:41:06.955Z,46.77
2019-05-03T04:43:35.958Z,44.80
2019-05-03T04:46:09.684Z,43.68
2019-05-03T04:48:38.731Z,47.17
2019-05-03T04:53:37.667Z,42.00
2019-05-03T04:56:06.568Z,39.10
2019-05-03T04:58:36.474Z,44.38
2019-05-03T05:01:06.582Z,44.50
2019-05-03T05:06:06.317Z,39.70
2019-05-03T05:08:35.997Z,40.45
2019-05-03T05:11:06.747Z,41.30
2019-05-03T05:13:36.545Z,39.20
2019-05-03T05:16:06.283Z,34.60
2019-05-03T05:18:45.531Z,37.78
2019-05-03T05:21:17.719Z,35.43
2019-05-03T05:26:59.849Z,38.33
2019-05-03T05:29:30.453Z,37.50
2019-05-03T05:31:59.387Z,37.65
2019-05-03T05:34:28.465Z,37.50
2019-05-03T05:36:57.398Z,38.33
2019-05-03T05:39:26.387Z,37.15
2019-05-03T05:41:55.561Z,33.63
2019-05-03T05:44:25.053Z,33.33
2019-05-03T05:47:34.413Z,31.15
2019-05-03T05:50:34.621Z,34.10
2019-05-03T05:55:54.963Z,31.87
2019-05-03T05:58:37.755Z,32.35
2019-05-03T06:06:19.863Z,29.77
2019-05-03T06:08:55.939Z,30.08
2019-05-03T06:11:46.008Z,31.45
2019-05-03T06:14:38.630Z,31.05
2019-05-03T06:17:14.670Z,28.20
2019-05-03T06:19:51.632Z,27.40
2019-05-03T06:22:28.752Z,28.10
2019-05-03T06:25:06.386Z,29.30
2019-05-03T06:27:38.290Z,30.72
2019-05-03T06:30:27.483Z,30.85
2019-05-03T06:32:56.503Z,31.77
2019-05-03T06:35:25.700Z,31.10
2019-05-03T06:40:25.279Z,36.90
2019-05-03T06:43:08.219Z,31.27
2019-05-03T06:45:26.850Z,33.35
2019-05-03T06:47:56.291Z,34.58
2019-05-03T06:50:28.977Z,31.02
2019-05-03T06:52:59.840Z,31.97
2019-05-03T06:55:27.983Z,30.48
2019-05-03T06:58:30.372Z,23.85
2019-05-03T07:01:26.787Z,21.23
2019-05-03T07:04:01.573Z,18.90
2019-05-03T07:06:50.623Z,21.77
2019-05-03T07:09:44.709Z,19.52
2019-05-03T07:14:45.032Z,21.75
2019-05-03T07:17:14.487Z,22.82
2019-05-03T07:19:45.781Z,19.37
2019-05-03T07:22:15.362Z,17.60
2019-05-03T07:24:45.546Z,14.63
2019-05-03T07:29:45.466Z,14.73
2019-05-03T07:32:17.634Z,13.22
2019-05-03T07:34:46.580Z,13.72
2019-05-03T07:37:15.601Z,14.23
2019-05-03T07:39:45.311Z,14.33
2019-05-03T07:42:15.678Z,13.78
2019-05-03T07:49:30.065Z,11.73
2019-05-03T07:51:59.431Z,11.33
2019-05-03T07:54:30.582Z,11.90
2019-05-03T07:57:05.159Z,11.15
2019-05-03T07:59:35.554Z,10.70
2019-05-03T08:02:05.789Z,11.35
2019-05-03T08:04:35.904Z,12.53
2019-05-03T08:07:05.716Z,12.05
2019-05-03T08:09:35.140Z,14.15
2019-05-03T08:12:05.196Z,15.80
2019-05-03T08:14:35.661Z,13.90
2019-05-03T08:17:05.252Z,12.68
2019-05-03T08:19:35.718Z,13.40
2019-05-03T08:22:05.445Z,15.45
2019-05-03T08:24:34.743Z,13.62
2019-05-03T08:27:04.992Z,15.32
2019-05-03T08:29:35.199Z,12.98
2019-05-03T08:32:24.569Z,13.98
2019-05-03T08:35:12.646Z,12.40
2019-05-03T08:40:19.930Z,12.65
2019-05-03T08:42:48.978Z,12.88
2019-05-03T08:45:18.014Z,14.50
2019-05-03T08:47:47.453Z,13.18
2019-05-03T08:50:21.375Z,14.15
2019-05-03T08:52:47.578Z,15.40
2019-05-03T08:55:16.537Z,11.63
2019-05-03T08:57:45.584Z,12.15
2019-05-03T09:00:16.991Z,11.33
2019-05-03T09:02:46.479Z,10.23
2019-05-03T09:05:18.526Z,10.18
2019-05-03T09:07:50.698Z,9.05
2019-05-03T09:13:06.558Z,9.73
2019-05-03T09:15:36.323Z,8.88
2019-05-03T09:18:35.960Z,9.33
2019-05-03T09:21:05.705Z,10.38
2019-05-03T09:24:34.998Z,9.18
2019-05-03T09:27:05.485Z,9.35
2019-05-03T09:34:35.120Z,8.30
2019-05-03T09:37:06.315Z,8.95
2019-05-03T09:39:40.655Z,8.68
2019-05-03T09:44:40.154Z,8.90
2019-05-03T09:53:55.475Z,9.55
2019-05-03T10:05:46.996Z,8.88
2019-05-03T10:08:05.267Z,8.60
2019-05-03T10:19:54.603Z,8.60
2019-05-03T10:22:47.730Z,9.43
2019-05-03T10:26:16.074Z,11.88
2019-05-03T10:42:08.500Z,8.50
2019-05-03T10:54:07.518Z,8.53
2019-05-03T10:57:35.956Z,10.18
2019-05-03T11:11:01.521Z,8.25
2019-05-03T11:14:15.061Z,8.15
2019-05-03T11:22:25.432Z,6.58
2019-05-03T11:26:00.050Z,6.42
2019-05-03T11:33:45.675Z,6.35
2019-05-03T11:43:18.617Z,5.17
2019-05-03T11:46:51.250Z,6.60
2019-05-03T11:54:15.593Z,9.78
2019-05-03T11:57:31.101Z,5.22
2019-05-03T12:01:12.928Z,6.62
2019-05-03T12:04:42.873Z,7.90
2019-05-03T12:07:18.484Z,6.85
2019-05-03T12:09:47.723Z,7.65
2019-05-03T12:17:34.923Z,6.87
2019-05-03T12:20:07.748Z,6.97
2019-05-03T12:22:38.462Z,8.40
2019-05-03T12:25:10.495Z,8.68
2019-05-03T12:27:39.691Z,7.30
2019-05-03T12:32:37.390Z,7.87
2019-05-03T12:35:06.914Z,7.60
2019-05-03T12:37:35.965Z,8.70
2019-05-03T12:40:05.506Z,7.37
2019-05-03T12:45:06.726Z,6.80
2019-05-03T12:50:06.564Z,8.30
2019-05-03T12:52:49.573Z,6.53
2019-05-03T12:55:07.433Z,6.10
2019-05-03T12:57:36.612Z,7.25
2019-05-03T13:00:26.119Z,6.35
2019-05-03T13:02:59.421Z,6.60
2019-05-03T13:05:30.145Z,7.67
2019-05-03T13:08:26.444Z,6.85
2019-05-03T13:10:55.754Z,9.25
2019-05-03T13:13:24.969Z,6.47
2019-05-03T13:15:55.064Z,8.18
2019-05-03T13:18:25.229Z,6.55
2019-05-03T13:20:55.854Z,8.23
2019-05-03T13:23:25.483Z,6.50
2019-05-03T13:25:55.581Z,6.25
2019-05-03T13:28:25.429Z,9.05
2019-05-03T13:31:25.127Z,7.17
2019-05-03T13:33:54.939Z,6.97
2019-05-03T13:36:25.271Z,6.22
2019-05-03T13:39:09.847Z,7.33
2019-05-03T13:41:26.017Z,5.72
2019-05-03T13:44:00.961Z,7.12
2019-05-03T13:46:30.717Z,7.53
2019-05-03T13:49:00.554Z,6.03
2019-05-03T13:51:30.114Z,7.30
2019-05-03T13:53:59.582Z,5.80
2019-05-03T13:56:29.669Z,7.05
2019-05-03T14:01:27.574Z,7.17
2019-05-03T14:03:57.622Z,5.33
2019-05-03T14:06:27.071Z,5.65
2019-05-03T14:08:56.284Z,5.30
2019-05-03T14:11:25.592Z,5.55
2019-05-03T14:13:55.185Z,4.92
2019-05-03T14:16:24.445Z,5.70
2019-05-03T14:18:56.940Z,6.95
2019-05-03T14:21:34.466Z,5.62
2019-05-03T14:24:09.835Z,5.80
2019-05-03T14:26:40.943Z,6.05
2019-05-03T14:29:10.471Z,6.03
2019-05-03T14:31:39.667Z,5.40
2019-05-03T14:34:08.599Z,7.40
2019-05-03T14:36:37.565Z,5.17
2019-05-03T14:39:10.098Z,5.28
2019-05-03T14:41:39.442Z,4.65
2019-05-03T14:44:08.538Z,5.40
2019-05-03T14:49:07.785Z,5.25
2019-05-03T14:51:37.000Z,4.03
2019-05-03T14:54:07.148Z,4.17
2019-05-03T14:56:45.659Z,4.65
2019-05-03T14:59:35.679Z,4.05
2019-05-03T15:02:15.396Z,5.45
2019-05-03T15:07:15.768Z,5.00
2019-05-03T15:14:50.356Z,4.87
2019-05-03T15:19:50.469Z,5.08
2019-05-03T15:22:22.154Z,4.00
2019-05-03T15:27:25.715Z,4.42
2019-05-03T15:29:58.058Z,3.58
2019-05-03T15:32:30.889Z,3.40
2019-05-03T15:35:00.768Z,5.67
2019-05-03T15:37:31.825Z,4.92
2019-05-03T15:40:15.641Z,4.47
2019-05-03T15:42:54.575Z,4.17
2019-05-03T15:48:38.412Z,5.00
2019-05-03T15:51:09.964Z,4.97
2019-05-03T15:53:41.235Z,5.60
2019-05-03T15:58:46.945Z,5.20
2019-05-03T16:01:19.330Z,5.78
2019-05-03T16:06:27.818Z,6.12
2019-05-03T16:09:00.663Z,5.53
2019-05-03T16:11:32.227Z,5.58
2019-05-03T16:14:06.009Z,6.25
2019-05-03T16:16:37.753Z,6.87
2019-05-03T16:19:07.748Z,6.25
2019-05-03T16:24:11.580Z,4.60
2019-05-03T16:27:02.018Z,4.70
2019-05-03T16:29:41.884Z,5.25
2019-05-03T16:32:12.450Z,5.03
2019-05-03T16:37:12.321Z,6.37
2019-05-03T16:39:41.967Z,5.78
2019-05-03T16:42:18.480Z,5.60
2019-05-03T16:44:50.636Z,4.47
2019-05-03T16:49:51.534Z,5.45
2019-05-03T16:52:25.660Z,5.33
2019-05-03T16:55:03.127Z,6.28
2019-05-03T16:57:35.380Z,6.05
2019-05-03T17:00:06.989Z,6.70
2019-05-03T17:02:39.522Z,7.50
2019-05-03T17:05:24.913Z,6.95
2019-05-03T17:08:14.782Z,8.10
2019-05-03T17:10:49.575Z,7.00
2019-05-03T17:18:21.977Z,7.62
2019-05-03T17:21:04.531Z,7.50
2019-05-03T17:23:35.571Z,6.87
2019-05-03T17:26:05.524Z,5.87
2019-05-03T17:28:35.737Z,7.15
2019-05-03T17:31:07.312Z,5.30
2019-05-03T17:33:36.587Z,5.67
2019-05-03T17:36:13.073Z,6.05
2019-05-03T17:38:57.557Z,5.50
2019-05-03T17:41:50.493Z,5.60
2019-05-03T17:44:27.308Z,6.75
2019-05-03T17:47:04.312Z,6.50
2019-05-03T17:49:34.841Z,5.83
2019-05-03T17:52:24.907Z,6.45
2019-05-03T17:55:15.765Z,7.40
2019-05-03T17:57:57.036Z,6.12
2019-05-03T18:00:44.478Z,5.55
2019-05-03T18:03:14.601Z,5.28
2019-05-03T18:05:55.498Z,4.95
2019-05-03T18:08:55.127Z,6.05
2019-05-03T18:11:28.783Z,5.70
2019-05-03T18:16:26.072Z,6.08
2019-05-03T18:18:54.978Z,6.50
2019-05-03T18:21:24.456Z,5.40
2019-05-03T18:23:54.535Z,5.40
2019-05-03T18:28:55.325Z,5.42
2019-05-03T18:31:25.106Z,4.75
2019-05-03T18:33:55.418Z,5.67
2019-05-03T18:36:25.305Z,5.75
2019-05-03T18:38:55.290Z,4.50
2019-05-03T18:41:25.427Z,5.83
2019-05-03T18:44:14.645Z,5.05
2019-05-03T18:46:47.768Z,7.20
2019-05-03T18:49:16.779Z,4.70
2019-05-03T18:54:15.629Z,4.67
2019-05-03T18:59:14.521Z,6.72
2019-05-03T19:01:45.174Z,6.33
2019-05-03T19:04:34.271Z,4.83
2019-05-03T19:07:04.368Z,5.95
2019-05-03T19:09:40.463Z,6.25
2019-05-03T19:12:17.144Z,5.35
2019-05-03T19:14:46.138Z,5.17
2019-05-03T19:17:35.434Z,4.60
2019-05-03T19:20:09.317Z,6.40
2019-05-03T19:22:38.784Z,4.75
2019-05-03T19:25:07.948Z,4.97
2019-05-03T19:27:37.100Z,6.20
2019-05-03T19:30:07.632Z,4.42
2019-05-03T19:35:06.980Z,7.78
2019-05-03T19:37:36.449Z,19.10
2019-05-03T19:40:06.658Z,15.55
2019-05-03T19:45:08.414Z,13.20
2019-05-03T19:47:37.749Z,11.50
2019-05-03T19:54:25.486Z,6.78
2019-05-03T19:56:55.704Z,6.72
2019-05-03T19:59:43.921Z,5.37
2019-05-03T20:02:41.528Z,5.92
2019-05-03T20:05:34.507Z,5.53
2019-05-03T20:08:24.521Z,6.53
2019-05-03T20:11:17.626Z,6.42
2019-05-03T20:13:47.538Z,6.12
2019-05-03T20:18:46.536Z,6.17
2019-05-03T20:21:15.567Z,4.90
2019-05-03T20:23:47.002Z,6.10
2019-05-03T20:28:45.122Z,7.10
2019-05-03T20:31:14.528Z,5.45
2019-05-03T20:33:45.570Z,6.28
2019-05-03T20:36:14.573Z,5.37
2019-05-03T20:38:44.581Z,6.37
2019-05-03T20:41:14.832Z,6.30
2019-05-03T20:44:15.844Z,7.25
2019-05-03T20:46:58.453Z,6.08
2019-05-03T20:49:27.368Z,7.03
2019-05-03T20:51:56.415Z,7.00
2019-05-03T20:54:27.879Z,7.15
2019-05-03T20:56:58.300Z,6.75
2019-05-03T20:59:27.573Z,6.12
2019-05-03T21:01:56.941Z,6.90
2019-05-03T21:04:26.326Z,7.28
2019-05-03T21:06:55.577Z,6.53
2019-05-03T21:11:55.057Z,6.92
2019-05-03T21:14:24.569Z,7.37
2019-05-03T21:25:12.476Z,8.60
2019-05-03T21:27:42.183Z,8.78
2019-05-03T21:30:11.298Z,8.73
2019-05-03T21:32:40.324Z,7.12
2019-05-03T21:35:10.387Z,8.08
2019-05-03T21:37:39.654Z,10.38
2019-05-03T21:40:08.901Z,8.55
2019-05-03T21:42:38.165Z,10.63
2019-05-03T21:45:10.545Z,10.25
2019-05-03T21:47:48.540Z,10.65
2019-05-03T21:50:19.315Z,9.60
2019-05-03T21:52:48.573Z,10.45
2019-05-03T21:55:20.149Z,8.73
2019-05-03T21:57:49.742Z,10.63
2019-05-03T22:02:51.722Z,12.10
2019-05-03T22:05:21.649Z,12.60
2019-05-03T22:13:00.565Z,10.23
2019-05-03T22:15:40.903Z,10.20
2019-05-03T22:18:21.480Z,9.80
2019-05-03T22:21:15.940Z,12.18
2019-05-03T22:24:04.443Z,11.03
2019-05-03T22:26:55.560Z,10.25
2019-05-03T22:29:25.419Z,11.10
2019-05-03T22:31:54.990Z,11.55
2019-05-03T22:34:25.805Z,11.45
2019-05-03T22:36:55.030Z,10.93
2019-05-03T22:39:24.986Z,10.08
2019-05-03T22:41:54.011Z,12.35
2019-05-03T22:45:23.878Z,10.72
2019-05-03T22:47:54.863Z,10.60
2019-05-03T22:50:25.533Z,11.40
2019-05-03T22:52:54.971Z,12.40
2019-05-03T22:55:24.724Z,10.58
2019-05-03T22:57:54.621Z,10.72
2019-05-03T23:00:25.165Z,11.45
2019-05-03T23:02:54.806Z,13.00
2019-05-03T23:05:24.065Z,9.85
2019-05-03T23:07:55.214Z,9.95
2019-05-03T23:10:25.734Z,11.43
2019-05-03T23:12:55.115Z,14.78
2019-05-03T23:15:24.393Z,10.78
2019-05-03T23:17:54.519Z,10.00
2019-05-03T23:23:05.404Z,10.03
2019-05-03T23:25:35.743Z,10.85
2019-05-03T23:30:33.639Z,11.95
2019-05-03T23:33:02.588Z,9.50
2019-05-03T23:35:31.588Z,10.75
2019-05-03T23:38:00.659Z,12.18
2019-05-03T23:40:29.634Z,10.80
2019-05-03T23:42:58.482Z,10.45
2019-05-03T23:45:27.750Z,11.57
2019-05-03T23:47:56.950Z,11.08
2019-05-03T23:50:26.038Z,10.90
2019-05-03T23:52:55.360Z,14.33
2019-05-03T23:55:41.979Z,11.78
2019-05-03T23:58:11.083Z,11.83
